EmailTwitter


Surface observations / France / LFBO (07630)

Regions: Quebec | Canada | USA | Europe | France | UK | Elsewhere
Station
Display
Info & Location for LFBO (07630) | Help decoding METAR

Weather Conditions observed on 2020/07/13 at 14:30 UTC at TOULOUSE/BLAGNAC, FR (LFBO)

Temperature: 30.0 Celsius.

Dewpoint: 9.0 Celsius.

Relative Humidity: 27%

Humidex: 31.

Winds: West at 26 km/h or 14 knots.

Mean Sea level Pressure: 102.00 kilopascals.

Coded METAR:

LFBO 131430Z AUTO 28014KT CAVOK 30/09 Q1020 NOSIG=